sensor_id;sensor_type;location;lat;lon;timestamp;P1;durP1;ratioP1;P2;durP2;ratioP2
20828;SDS011;10575;50.124;8.582;2023-04-21T00:00:02;43.35;;;24.38;;
20828;SDS011;10575;50.124;8.582;2023-04-21T00:02:32;40.80;;;24.05;;
20828;SDS011;10575;50.124;8.582;2023-04-21T00:04:58;40.53;;;25.08;;
20828;SDS011;10575;50.124;8.582;2023-04-21T00:07:24;41.95;;;25.00;;
20828;SDS011;10575;50.124;8.582;2023-04-21T00:09:49;40.10;;;24.38;;
20828;SDS011;10575;50.124;8.582;2023-04-21T00:12:15;39.15;;;23.88;;
20828;SDS011;10575;50.124;8.582;2023-04-21T00:14:40;38.00;;;24.10;;
20828;SDS011;10575;50.124;8.582;2023-04-21T00:17:06;44.17;;;26.27;;
20828;SDS011;10575;50.124;8.582;2023-04-21T00:19:31;43.60;;;26.50;;
20828;SDS011;10575;50.124;8.582;2023-04-21T00:21:59;41.55;;;24.85;;
20828;SDS011;10575;50.124;8.582;2023-04-21T00:24:25;43.50;;;25.70;;
20828;SDS011;10575;50.124;8.582;2023-04-21T00:26:51;43.28;;;26.38;;
20828;SDS011;10575;50.124;8.582;2023-04-21T00:29:16;40.33;;;24.92;;
20828;SDS011;10575;50.124;8.582;2023-04-21T00:31:42;48.35;;;27.35;;
20828;SDS011;10575;50.124;8.582;2023-04-21T00:34:07;45.40;;;26.35;;
20828;SDS011;10575;50.124;8.582;2023-04-21T00:36:33;41.88;;;25.48;;
20828;SDS011;10575;50.124;8.582;2023-04-21T00:38:59;50.08;;;26.75;;
20828;SDS011;10575;50.124;8.582;2023-04-21T00:41:24;45.83;;;27.20;;
20828;SDS011;10575;50.124;8.582;2023-04-21T00:44:05;48.17;;;26.98;;
20828;SDS011;10575;50.124;8.582;2023-04-21T00:46:32;45.53;;;26.25;;
20828;SDS011;10575;50.124;8.582;2023-04-21T00:48:58;49.70;;;28.40;;
20828;SDS011;10575;50.124;8.582;2023-04-21T00:51:26;44.90;;;27.00;;
20828;SDS011;10575;50.124;8.582;2023-04-21T00:53:52;50.30;;;28.35;;
20828;SDS011;10575;50.124;8.582;2023-04-21T00:56:19;52.40;;;29.13;;
20828;SDS011;10575;50.124;8.582;2023-04-21T00:58:46;51.28;;;28.73;;
20828;SDS011;10575;50.124;8.582;2023-04-21T01:01:13;55.70;;;31.55;;
20828;SDS011;10575;50.124;8.582;2023-04-21T01:03:39;54.70;;;29.73;;
20828;SDS011;10575;50.124;8.582;2023-04-21T01:06:05;55.58;;;29.60;;
20828;SDS011;10575;50.124;8.582;2023-04-21T01:08:31;50.92;;;28.52;;
20828;SDS011;10575;50.124;8.582;2023-04-21T01:10:57;57.67;;;31.65;;
20828;SDS011;10575;50.124;8.582;2023-04-21T01:13:22;60.60;;;31.60;;
20828;SDS011;10575;50.124;8.582;2023-04-21T01:15:48;61.88;;;32.10;;
20828;SDS011;10575;50.124;8.582;2023-04-21T01:18:14;53.60;;;31.13;;
20828;SDS011;10575;50.124;8.582;2023-04-21T01:20:40;61.40;;;31.40;;
20828;SDS011;10575;50.124;8.582;2023-04-21T01:23:08;64.85;;;33.05;;
20828;SDS011;10575;50.124;8.582;2023-04-21T01:25:34;65.75;;;32.53;;
20828;SDS011;10575;50.124;8.582;2023-04-21T01:28:00;64.25;;;32.50;;
20828;SDS011;10575;50.124;8.582;2023-04-21T01:30:26;61.58;;;32.70;;
20828;SDS011;10575;50.124;8.582;2023-04-21T01:32:51;64.10;;;33.00;;
20828;SDS011;10575;50.124;8.582;2023-04-21T01:35:17;64.05;;;33.35;;
20828;SDS011;10575;50.124;8.582;2023-04-21T01:37:43;67.68;;;32.60;;
20828;SDS011;10575;50.124;8.582;2023-04-21T01:40:08;62.53;;;31.67;;
20828;SDS011;10575;50.124;8.582;2023-04-21T01:42:36;61.92;;;32.20;;
20828;SDS011;10575;50.124;8.582;2023-04-21T01:45:04;60.42;;;30.88;;
20828;SDS011;10575;50.124;8.582;2023-04-21T01:47:30;62.63;;;32.50;;
20828;SDS011;10575;50.124;8.582;2023-04-21T01:49:56;54.25;;;29.95;;
20828;SDS011;10575;50.124;8.582;2023-04-21T01:52:22;62.60;;;31.58;;
20828;SDS011;10575;50.124;8.582;2023-04-21T01:54:47;63.67;;;31.58;;
20828;SDS011;10575;50.124;8.582;2023-04-21T01:57:13;62.38;;;31.63;;
20828;SDS011;10575;50.124;8.582;2023-04-21T01:59:39;67.50;;;32.58;;
20828;SDS011;10575;50.124;8.582;2023-04-21T02:02:05;63.63;;;32.63;;
20828;SDS011;10575;50.124;8.582;2023-04-21T02:04:30;62.95;;;32.25;;
20828;SDS011;10575;50.124;8.582;2023-04-21T02:06:56;67.57;;;31.35;;
20828;SDS011;10575;50.124;8.582;2023-04-21T02:09:21;61.33;;;31.52;;
20828;SDS011;10575;50.124;8.582;2023-04-21T02:11:47;61.22;;;31.48;;
20828;SDS011;10575;50.124;8.582;2023-04-21T02:14:12;61.38;;;30.27;;
20828;SDS011;10575;50.124;8.582;2023-04-21T02:16:38;60.17;;;30.50;;
20828;SDS011;10575;50.124;8.582;2023-04-21T02:19:03;58.95;;;30.70;;
20828;SDS011;10575;50.124;8.582;2023-04-21T02:21:30;59.47;;;28.83;;
20828;SDS011;10575;50.124;8.582;2023-04-21T02:23:56;56.97;;;29.85;;
20828;SDS011;10575;50.124;8.582;2023-04-21T02:26:22;53.22;;;29.65;;
20828;SDS011;10575;50.124;8.582;2023-04-21T02:28:47;56.97;;;29.98;;
20828;SDS011;10575;50.124;8.582;2023-04-21T02:31:14;54.53;;;29.77;;
20828;SDS011;10575;50.124;8.582;2023-04-21T02:33:40;54.65;;;27.83;;
20828;SDS011;10575;50.124;8.582;2023-04-21T02:36:05;53.38;;;29.30;;
20828;SDS011;10575;50.124;8.582;2023-04-21T02:38:31;50.13;;;26.38;;
20828;SDS011;10575;50.124;8.582;2023-04-21T02:40:57;55.47;;;30.08;;
20828;SDS011;10575;50.124;8.582;2023-04-21T02:43:23;56.03;;;28.48;;
20828;SDS011;10575;50.124;8.582;2023-04-21T02:45:48;55.20;;;29.52;;
20828;SDS011;10575;50.124;8.582;2023-04-21T02:48:14;57.47;;;29.33;;
20828;SDS011;10575;50.124;8.582;2023-04-21T02:50:41;55.58;;;29.15;;
20828;SDS011;10575;50.124;8.582;2023-04-21T02:53:07;52.00;;;28.45;;
20828;SDS011;10575;50.124;8.582;2023-04-21T02:55:32;52.03;;;27.45;;
20828;SDS011;10575;50.124;8.582;2023-04-21T02:57:58;56.53;;;29.00;;
20828;SDS011;10575;50.124;8.582;2023-04-21T03:00:23;51.83;;;27.17;;
20828;SDS011;10575;50.124;8.582;2023-04-21T03:02:49;54.60;;;28.50;;
20828;SDS011;10575;50.124;8.582;2023-04-21T03:05:17;58.72;;;28.65;;
20828;SDS011;10575;50.124;8.582;2023-04-21T03:07:43;52.88;;;27.02;;
20828;SDS011;10575;50.124;8.582;2023-04-21T03:10:09;46.05;;;26.20;;
20828;SDS011;10575;50.124;8.582;2023-04-21T03:12:35;45.08;;;24.30;;
20828;SDS011;10575;50.124;8.582;2023-04-21T03:15:01;46.95;;;25.95;;
20828;SDS011;10575;50.124;8.582;2023-04-21T03:17:26;46.15;;;24.90;;
20828;SDS011;10575;50.124;8.582;2023-04-21T03:19:52;46.83;;;24.35;;
20828;SDS011;10575;50.124;8.582;2023-04-21T03:22:17;47.80;;;25.80;;
20828;SDS011;10575;50.124;8.582;2023-04-21T03:24:43;44.75;;;24.60;;
20828;SDS011;10575;50.124;8.582;2023-04-21T03:27:08;44.13;;;24.52;;
20828;SDS011;10575;50.124;8.582;2023-04-21T03:29:34;48.80;;;26.90;;
20828;SDS011;10575;50.124;8.582;2023-04-21T03:32:00;47.67;;;24.98;;
20828;SDS011;10575;50.124;8.582;2023-04-21T03:34:26;49.53;;;26.60;;
20828;SDS011;10575;50.124;8.582;2023-04-21T03:36:51;54.05;;;27.80;;
20828;SDS011;10575;50.124;8.582;2023-04-21T03:39:17;52.20;;;27.00;;
20828;SDS011;10575;50.124;8.582;2023-04-21T03:41:42;46.70;;;25.63;;
20828;SDS011;10575;50.124;8.582;2023-04-21T03:44:08;46.00;;;26.17;;
20828;SDS011;10575;50.124;8.582;2023-04-21T03:46:33;48.83;;;27.35;;
20828;SDS011;10575;50.124;8.582;2023-04-21T03:48:59;50.05;;;25.52;;
20828;SDS011;10575;50.124;8.582;2023-04-21T03:51:24;50.13;;;26.63;;
20828;SDS011;10575;50.124;8.582;2023-04-21T03:53:51;51.95;;;26.35;;
20828;SDS011;10575;50.124;8.582;2023-04-21T03:56:19;49.65;;;27.23;;
20828;SDS011;10575;50.124;8.582;2023-04-21T03:58:45;46.47;;;25.05;;
20828;SDS011;10575;50.124;8.582;2023-04-21T04:01:10;49.08;;;25.80;;
20828;SDS011;10575;50.124;8.582;2023-04-21T04:03:36;48.85;;;26.55;;
20828;SDS011;10575;50.124;8.582;2023-04-21T04:06:01;47.47;;;25.00;;
20828;SDS011;10575;50.124;8.582;2023-04-21T04:08:28;42.70;;;23.67;;
20828;SDS011;10575;50.124;8.582;2023-04-21T04:10:54;46.90;;;25.35;;
20828;SDS011;10575;50.124;8.582;2023-04-21T04:13:20;49.80;;;25.40;;
20828;SDS011;10575;50.124;8.582;2023-04-21T04:15:46;47.63;;;24.52;;
20828;SDS011;10575;50.124;8.582;2023-04-21T04:18:12;45.50;;;25.02;;
20828;SDS011;10575;50.124;8.582;2023-04-21T04:20:37;48.38;;;25.25;;
20828;SDS011;10575;50.124;8.582;2023-04-21T04:23:03;49.03;;;25.40;;
20828;SDS011;10575;50.124;8.582;2023-04-21T04:25:28;42.22;;;22.73;;
20828;SDS011;10575;50.124;8.582;2023-04-21T04:27:54;40.75;;;22.27;;
20828;SDS011;10575;50.124;8.582;2023-04-21T04:30:21;48.25;;;24.75;;
20828;SDS011;10575;50.124;8.582;2023-04-21T04:32:47;45.47;;;23.92;;
20828;SDS011;10575;50.124;8.582;2023-04-21T04:35:13;47.53;;;24.27;;
20828;SDS011;10575;50.124;8.582;2023-04-21T04:37:40;47.03;;;25.33;;
20828;SDS011;10575;50.124;8.582;2023-04-21T04:40:06;48.05;;;24.90;;
20828;SDS011;10575;50.124;8.582;2023-04-21T04:42:36;47.75;;;26.23;;
20828;SDS011;10575;50.124;8.582;2023-04-21T04:45:03;49.60;;;26.33;;
20828;SDS011;10575;50.124;8.582;2023-04-21T04:47:30;44.58;;;24.33;;
20828;SDS011;10575;50.124;8.582;2023-04-21T04:49:55;46.95;;;24.73;;
20828;SDS011;10575;50.124;8.582;2023-04-21T04:52:21;49.85;;;25.30;;
20828;SDS011;10575;50.124;8.582;2023-04-21T04:54:46;46.65;;;24.50;;
20828;SDS011;10575;50.124;8.582;2023-04-21T04:57:12;43.00;;;24.17;;
20828;SDS011;10575;50.124;8.582;2023-04-21T04:59:37;45.35;;;24.58;;
20828;SDS011;10575;50.124;8.582;2023-04-21T05:02:03;44.83;;;23.92;;
20828;SDS011;10575;50.124;8.582;2023-04-21T05:04:32;43.42;;;23.80;;
20828;SDS011;10575;50.124;8.582;2023-04-21T05:06:58;41.05;;;22.77;;
20828;SDS011;10575;50.124;8.582;2023-04-21T05:09:23;47.85;;;24.30;;
20828;SDS011;10575;50.124;8.582;2023-04-21T05:11:49;42.70;;;22.70;;
20828;SDS011;10575;50.124;8.582;2023-04-21T05:14:15;43.55;;;23.95;;
20828;SDS011;10575;50.124;8.582;2023-04-21T05:16:42;42.05;;;23.13;;
20828;SDS011;10575;50.124;8.582;2023-04-21T05:19:07;40.05;;;22.05;;
20828;SDS011;10575;50.124;8.582;2023-04-21T05:21:33;44.88;;;23.50;;
20828;SDS011;10575;50.124;8.582;2023-04-21T05:23:59;38.17;;;22.35;;
20828;SDS011;10575;50.124;8.582;2023-04-21T05:26:25;36.60;;;20.88;;
20828;SDS011;10575;50.124;8.582;2023-04-21T05:28:52;41.92;;;21.77;;
20828;SDS011;10575;50.124;8.582;2023-04-21T05:31:17;36.75;;;20.38;;
20828;SDS011;10575;50.124;8.582;2023-04-21T05:33:43;37.05;;;20.60;;
20828;SDS011;10575;50.124;8.582;2023-04-21T05:36:09;36.67;;;20.48;;
20828;SDS011;10575;50.124;8.582;2023-04-21T05:38:35;39.92;;;22.60;;
20828;SDS011;10575;50.124;8.582;2023-04-21T05:41:01;35.35;;;20.50;;
20828;SDS011;10575;50.124;8.582;2023-04-21T05:43:27;35.00;;;19.48;;
20828;SDS011;10575;50.124;8.582;2023-04-21T05:45:53;35.70;;;20.77;;
20828;SDS011;10575;50.124;8.582;2023-04-21T05:48:19;35.15;;;19.92;;
20828;SDS011;10575;50.124;8.582;2023-04-21T05:50:44;36.28;;;19.92;;
20828;SDS011;10575;50.124;8.582;2023-04-21T05:53:10;38.40;;;21.23;;
20828;SDS011;10575;50.124;8.582;2023-04-21T05:55:35;35.63;;;20.67;;
20828;SDS011;10575;50.124;8.582;2023-04-21T05:58:01;39.70;;;22.70;;
20828;SDS011;10575;50.124;8.582;2023-04-21T06:00:28;37.60;;;20.33;;
20828;SDS011;10575;50.124;8.582;2023-04-21T06:02:54;37.17;;;19.90;;
20828;SDS011;10575;50.124;8.582;2023-04-21T06:05:20;34.78;;;20.30;;
20828;SDS011;10575;50.124;8.582;2023-04-21T06:07:45;37.83;;;21.38;;
20828;SDS011;10575;50.124;8.582;2023-04-21T06:10:12;36.33;;;20.80;;
20828;SDS011;10575;50.124;8.582;2023-04-21T06:12:38;39.60;;;21.70;;
20828;SDS011;10575;50.124;8.582;2023-04-21T06:15:03;35.95;;;20.70;;
20828;SDS011;10575;50.124;8.582;2023-04-21T06:17:29;35.20;;;20.42;;
20828;SDS011;10575;50.124;8.582;2023-04-21T06:19:55;38.13;;;20.20;;
20828;SDS011;10575;50.124;8.582;2023-04-21T06:22:21;38.10;;;21.25;;
20828;SDS011;10575;50.124;8.582;2023-04-21T06:24:47;36.30;;;20.23;;
20828;SDS011;10575;50.124;8.582;2023-04-21T06:27:13;40.75;;;22.25;;
20828;SDS011;10575;50.124;8.582;2023-04-21T06:29:38;39.03;;;21.00;;
20828;SDS011;10575;50.124;8.582;2023-04-21T06:32:04;36.28;;;21.70;;
20828;SDS011;10575;50.124;8.582;2023-04-21T06:34:30;36.50;;;20.58;;
20828;SDS011;10575;50.124;8.582;2023-04-21T06:36:55;37.42;;;21.50;;
20828;SDS011;10575;50.124;8.582;2023-04-21T06:39:21;35.40;;;21.13;;
20828;SDS011;10575;50.124;8.582;2023-04-21T06:41:46;34.10;;;20.58;;
20828;SDS011;10575;50.124;8.582;2023-04-21T06:44:12;40.30;;;22.45;;
20828;SDS011;10575;50.124;8.582;2023-04-21T06:46:38;40.35;;;22.20;;
20828;SDS011;10575;50.124;8.582;2023-04-21T06:49:05;33.35;;;21.20;;
20828;SDS011;10575;50.124;8.582;2023-04-21T06:51:31;36.47;;;21.20;;
20828;SDS011;10575;50.124;8.582;2023-04-21T06:53:57;35.13;;;21.38;;
20828;SDS011;10575;50.124;8.582;2023-04-21T06:56:23;37.92;;;21.73;;
20828;SDS011;10575;50.124;8.582;2023-04-21T06:58:50;32.13;;;19.33;;
20828;SDS011;10575;50.124;8.582;2023-04-21T07:01:15;38.95;;;22.02;;
20828;SDS011;10575;50.124;8.582;2023-04-21T07:03:41;32.80;;;19.67;;
20828;SDS011;10575;50.124;8.582;2023-04-21T07:06:06;31.83;;;19.00;;
20828;SDS011;10575;50.124;8.582;2023-04-21T07:08:32;32.58;;;19.60;;
20828;SDS011;10575;50.124;8.582;2023-04-21T07:10:57;32.17;;;18.13;;
20828;SDS011;10575;50.124;8.582;2023-04-21T07:13:23;31.75;;;18.98;;
20828;SDS011;10575;50.124;8.582;2023-04-21T07:15:48;30.98;;;19.75;;
20828;SDS011;10575;50.124;8.582;2023-04-21T07:18:14;33.45;;;20.08;;
20828;SDS011;10575;50.124;8.582;2023-04-21T07:20:39;31.88;;;19.85;;
20828;SDS011;10575;50.124;8.582;2023-04-21T07:23:05;35.50;;;19.23;;
20828;SDS011;10575;50.124;8.582;2023-04-21T07:25:31;31.38;;;20.58;;
20828;SDS011;10575;50.124;8.582;2023-04-21T07:27:56;32.08;;;20.05;;
20828;SDS011;10575;50.124;8.582;2023-04-21T07:30:22;32.17;;;20.35;;
20828;SDS011;10575;50.124;8.582;2023-04-21T07:32:47;32.30;;;18.63;;
20828;SDS011;10575;50.124;8.582;2023-04-21T07:35:13;34.58;;;21.33;;
20828;SDS011;10575;50.124;8.582;2023-04-21T07:37:38;34.85;;;20.58;;
20828;SDS011;10575;50.124;8.582;2023-04-21T07:40:05;31.38;;;20.17;;
20828;SDS011;10575;50.124;8.582;2023-04-21T07:42:31;35.10;;;19.98;;
20828;SDS011;10575;50.124;8.582;2023-04-21T07:44:57;31.40;;;19.08;;
20828;SDS011;10575;50.124;8.582;2023-04-21T07:47:25;32.90;;;19.23;;
20828;SDS011;10575;50.124;8.582;2023-04-21T07:49:50;29.40;;;18.65;;
20828;SDS011;10575;50.124;8.582;2023-04-21T07:52:16;30.45;;;18.40;;
20828;SDS011;10575;50.124;8.582;2023-04-21T07:54:42;29.33;;;18.98;;
20828;SDS011;10575;50.124;8.582;2023-04-21T07:57:07;28.58;;;18.52;;
20828;SDS011;10575;50.124;8.582;2023-04-21T07:59:36;30.10;;;18.67;;
20828;SDS011;10575;50.124;8.582;2023-04-21T08:02:02;33.25;;;20.35;;
20828;SDS011;10575;50.124;8.582;2023-04-21T08:04:28;32.22;;;19.35;;
20828;SDS011;10575;50.124;8.582;2023-04-21T08:06:53;33.30;;;20.40;;
20828;SDS011;10575;50.124;8.582;2023-04-21T08:09:19;31.17;;;19.17;;
20828;SDS011;10575;50.124;8.582;2023-04-21T08:11:45;30.45;;;18.63;;
20828;SDS011;10575;50.124;8.582;2023-04-21T08:14:11;35.70;;;21.00;;
20828;SDS011;10575;50.124;8.582;2023-04-21T08:16:37;30.45;;;19.35;;
20828;SDS011;10575;50.124;8.582;2023-04-21T08:19:05;32.40;;;19.77;;
20828;SDS011;10575;50.124;8.582;2023-04-21T08:21:31;33.53;;;19.95;;
20828;SDS011;10575;50.124;8.582;2023-04-21T08:23:57;29.90;;;19.23;;
20828;SDS011;10575;50.124;8.582;2023-04-21T08:26:23;29.35;;;19.42;;
20828;SDS011;10575;50.124;8.582;2023-04-21T08:28:49;31.35;;;20.38;;
20828;SDS011;10575;50.124;8.582;2023-04-21T08:31:16;31.05;;;20.42;;
20828;SDS011;10575;50.124;8.582;2023-04-21T08:33:43;27.65;;;18.85;;
20828;SDS011;10575;50.124;8.582;2023-04-21T08:36:09;28.73;;;19.15;;
20828;SDS011;10575;50.124;8.582;2023-04-21T08:38:35;31.02;;;20.30;;
20828;SDS011;10575;50.124;8.582;2023-04-21T08:41:01;29.15;;;18.90;;
20828;SDS011;10575;50.124;8.582;2023-04-21T08:43:28;28.08;;;18.50;;
20828;SDS011;10575;50.124;8.582;2023-04-21T08:45:54;33.75;;;20.45;;
20828;SDS011;10575;50.124;8.582;2023-04-21T08:48:23;29.98;;;19.85;;
20828;SDS011;10575;50.124;8.582;2023-04-21T08:51:21;29.33;;;18.77;;
20828;SDS011;10575;50.124;8.582;2023-04-21T08:54:00;29.33;;;19.90;;
20828;SDS011;10575;50.124;8.582;2023-04-21T08:56:26;29.05;;;19.17;;
20828;SDS011;10575;50.124;8.582;2023-04-21T08:58:52;26.48;;;17.33;;
20828;SDS011;10575;50.124;8.582;2023-04-21T09:04:58;27.95;;;17.77;;
20828;SDS011;10575;50.124;8.582;2023-04-21T09:07:31;23.95;;;16.38;;
20828;SDS011;10575;50.124;8.582;2023-04-21T09:10:50;25.38;;;16.80;;
20828;SDS011;10575;50.124;8.582;2023-04-21T09:13:17;25.75;;;17.52;;
20828;SDS011;10575;50.124;8.582;2023-04-21T09:15:44;24.77;;;17.20;;
20828;SDS011;10575;50.124;8.582;2023-04-21T09:18:19;25.02;;;18.02;;
20828;SDS011;10575;50.124;8.582;2023-04-21T09:20:47;24.48;;;18.13;;
20828;SDS011;10575;50.124;8.582;2023-04-21T09:23:15;22.67;;;16.55;;
20828;SDS011;10575;50.124;8.582;2023-04-21T09:25:41;27.02;;;18.85;;
20828;SDS011;10575;50.124;8.582;2023-04-21T09:28:08;26.13;;;17.67;;
20828;SDS011;10575;50.124;8.582;2023-04-21T09:30:35;31.45;;;19.88;;
20828;SDS011;10575;50.124;8.582;2023-04-21T09:33:02;28.45;;;20.25;;
20828;SDS011;10575;50.124;8.582;2023-04-21T09:35:29;32.15;;;20.75;;
20828;SDS011;10575;50.124;8.582;2023-04-21T09:37:58;31.85;;;20.70;;
20828;SDS011;10575;50.124;8.582;2023-04-21T09:40:25;31.45;;;19.75;;
20828;SDS011;10575;50.124;8.582;2023-04-21T09:42:52;32.20;;;19.33;;
20828;SDS011;10575;50.124;8.582;2023-04-21T09:45:17;33.65;;;21.17;;
20828;SDS011;10575;50.124;8.582;2023-04-21T09:47:43;30.63;;;20.83;;
20828;SDS011;10575;50.124;8.582;2023-04-21T09:50:14;33.47;;;20.65;;
20828;SDS011;10575;50.124;8.582;2023-04-21T09:52:40;34.03;;;21.05;;
20828;SDS011;10575;50.124;8.582;2023-04-21T09:55:11;34.28;;;22.10;;
20828;SDS011;10575;50.124;8.582;2023-04-21T09:57:38;37.47;;;21.70;;
20828;SDS011;10575;50.124;8.582;2023-04-21T10:00:05;42.55;;;23.23;;
20828;SDS011;10575;50.124;8.582;2023-04-21T10:02:34;38.00;;;22.38;;
20828;SDS011;10575;50.124;8.582;2023-04-21T10:05:02;35.03;;;22.42;;
20828;SDS011;10575;50.124;8.582;2023-04-21T10:07:30;37.40;;;23.23;;
20828;SDS011;10575;50.124;8.582;2023-04-21T10:09:56;38.10;;;22.63;;
20828;SDS011;10575;50.124;8.582;2023-04-21T10:12:23;36.08;;;21.70;;
20828;SDS011;10575;50.124;8.582;2023-04-21T10:14:50;32.97;;;20.25;;
20828;SDS011;10575;50.124;8.582;2023-04-21T10:17:23;33.28;;;21.70;;
20828;SDS011;10575;50.124;8.582;2023-04-21T10:19:51;33.60;;;20.60;;
20828;SDS011;10575;50.124;8.582;2023-04-21T10:22:27;35.60;;;20.83;;
20828;SDS011;10575;50.124;8.582;2023-04-21T10:24:54;30.92;;;20.17;;
20828;SDS011;10575;50.124;8.582;2023-04-21T10:27:34;31.48;;;19.52;;
20828;SDS011;10575;50.124;8.582;2023-04-21T10:30:20;30.60;;;20.25;;
20828;SDS011;10575;50.124;8.582;2023-04-21T10:32:47;33.78;;;21.75;;
20828;SDS011;10575;50.124;8.582;2023-04-21T10:35:36;33.47;;;20.48;;
20828;SDS011;10575;50.124;8.582;2023-04-21T10:38:41;30.40;;;18.45;;
20828;SDS011;10575;50.124;8.582;2023-04-21T10:41:29;27.17;;;17.83;;
20828;SDS011;10575;50.124;8.582;2023-04-21T10:43:57;26.08;;;18.70;;
20828;SDS011;10575;50.124;8.582;2023-04-21T10:46:29;29.50;;;20.10;;
20828;SDS011;10575;50.124;8.582;2023-04-21T10:49:03;28.90;;;18.30;;
20828;SDS011;10575;50.124;8.582;2023-04-21T10:51:29;26.45;;;17.48;;
20828;SDS011;10575;50.124;8.582;2023-04-21T10:53:56;27.27;;;18.08;;
20828;SDS011;10575;50.124;8.582;2023-04-21T10:56:22;25.88;;;17.25;;
20828;SDS011;10575;50.124;8.582;2023-04-21T10:58:49;27.50;;;18.13;;
20828;SDS011;10575;50.124;8.582;2023-04-21T11:01:16;25.85;;;17.10;;
20828;SDS011;10575;50.124;8.582;2023-04-21T11:03:42;27.27;;;18.65;;
20828;SDS011;10575;50.124;8.582;2023-04-21T11:06:14;24.50;;;17.17;;
20828;SDS011;10575;50.124;8.582;2023-04-21T11:08:54;24.40;;;16.50;;
20828;SDS011;10575;50.124;8.582;2023-04-21T11:11:21;24.10;;;16.33;;
20828;SDS011;10575;50.124;8.582;2023-04-21T11:13:51;26.02;;;17.63;;
20828;SDS011;10575;50.124;8.582;2023-04-21T11:16:17;27.95;;;17.75;;
20828;SDS011;10575;50.124;8.582;2023-04-21T11:18:44;29.98;;;17.48;;
20828;SDS011;10575;50.124;8.582;2023-04-21T11:21:10;27.30;;;18.40;;
20828;SDS011;10575;50.124;8.582;2023-04-21T11:23:40;25.90;;;17.58;;
20828;SDS011;10575;50.124;8.582;2023-04-21T11:26:06;27.55;;;17.75;;
20828;SDS011;10575;50.124;8.582;2023-04-21T11:28:32;25.77;;;16.83;;
20828;SDS011;10575;50.124;8.582;2023-04-21T11:30:57;26.23;;;16.27;;
20828;SDS011;10575;50.124;8.582;2023-04-21T11:33:23;24.92;;;15.27;;
20828;SDS011;10575;50.124;8.582;2023-04-21T11:35:48;26.70;;;16.58;;
20828;SDS011;10575;50.124;8.582;2023-04-21T11:38:15;24.08;;;15.82;;
20828;SDS011;10575;50.124;8.582;2023-04-21T11:40:48;23.52;;;15.00;;
20828;SDS011;10575;50.124;8.582;2023-04-21T11:43:15;23.25;;;15.32;;
20828;SDS011;10575;50.124;8.582;2023-04-21T11:45:41;28.50;;;16.05;;
20828;SDS011;10575;50.124;8.582;2023-04-21T11:48:15;28.08;;;16.83;;
20828;SDS011;10575;50.124;8.582;2023-04-21T11:50:47;22.58;;;15.25;;
20828;SDS011;10575;50.124;8.582;2023-04-21T11:53:14;24.58;;;16.05;;
20828;SDS011;10575;50.124;8.582;2023-04-21T11:55:44;24.88;;;16.20;;
20828;SDS011;10575;50.124;8.582;2023-04-21T11:58:10;26.42;;;15.88;;
20828;SDS011;10575;50.124;8.582;2023-04-21T12:00:39;23.17;;;15.77;;
20828;SDS011;10575;50.124;8.582;2023-04-21T12:03:08;23.27;;;14.93;;
20828;SDS011;10575;50.124;8.582;2023-04-21T12:05:34;22.27;;;15.48;;
20828;SDS011;10575;50.124;8.582;2023-04-21T12:08:00;23.98;;;15.75;;
20828;SDS011;10575;50.124;8.582;2023-04-21T12:10:28;27.40;;;17.02;;
20828;SDS011;10575;50.124;8.582;2023-04-21T12:12:54;28.08;;;15.77;;
20828;SDS011;10575;50.124;8.582;2023-04-21T12:15:21;21.42;;;15.40;;
20828;SDS011;10575;50.124;8.582;2023-04-21T12:20:23;21.65;;;13.93;;
20828;SDS011;10575;50.124;8.582;2023-04-21T12:22:49;21.73;;;13.98;;
20828;SDS011;10575;50.124;8.582;2023-04-21T12:25:15;27.45;;;16.48;;
20828;SDS011;10575;50.124;8.582;2023-04-21T12:27:47;23.85;;;16.00;;
20828;SDS011;10575;50.124;8.582;2023-04-21T12:30:13;22.15;;;15.60;;
20828;SDS011;10575;50.124;8.582;2023-04-21T12:32:39;23.27;;;15.55;;
20828;SDS011;10575;50.124;8.582;2023-04-21T12:35:05;22.35;;;15.02;;
20828;SDS011;10575;50.124;8.582;2023-04-21T12:37:31;25.10;;;15.65;;
20828;SDS011;10575;50.124;8.582;2023-04-21T12:39:56;21.67;;;15.23;;
20828;SDS011;10575;50.124;8.582;2023-04-21T12:42:22;21.23;;;15.13;;
20828;SDS011;10575;50.124;8.582;2023-04-21T12:44:47;18.77;;;13.40;;
20828;SDS011;10575;50.124;8.582;2023-04-21T12:47:13;19.65;;;13.68;;
20828;SDS011;10575;50.124;8.582;2023-04-21T12:49:38;18.15;;;12.77;;
20828;SDS011;10575;50.124;8.582;2023-04-21T12:52:05;17.15;;;12.38;;
20828;SDS011;10575;50.124;8.582;2023-04-21T12:54:31;19.33;;;13.15;;
20828;SDS011;10575;50.124;8.582;2023-04-21T12:56:57;19.67;;;13.00;;
20828;SDS011;10575;50.124;8.582;2023-04-21T12:59:23;20.13;;;13.32;;
20828;SDS011;10575;50.124;8.582;2023-04-21T13:01:48;23.42;;;13.32;;
20828;SDS011;10575;50.124;8.582;2023-04-21T13:04:14;20.85;;;12.98;;
20828;SDS011;10575;50.124;8.582;2023-04-21T13:06:40;24.10;;;12.40;;
20828;SDS011;10575;50.124;8.582;2023-04-21T13:09:05;17.48;;;12.85;;
20828;SDS011;10575;50.124;8.582;2023-04-21T13:11:31;18.10;;;13.38;;
20828;SDS011;10575;50.124;8.582;2023-04-21T13:13:57;17.77;;;12.85;;
20828;SDS011;10575;50.124;8.582;2023-04-21T13:16:22;20.70;;;13.45;;
20828;SDS011;10575;50.124;8.582;2023-04-21T13:18:48;20.83;;;12.65;;
20828;SDS011;10575;50.124;8.582;2023-04-21T13:21:13;21.48;;;12.80;;
20828;SDS011;10575;50.124;8.582;2023-04-21T13:23:39;20.10;;;12.30;;
20828;SDS011;10575;50.124;8.582;2023-04-21T13:26:05;21.35;;;12.55;;
20828;SDS011;10575;50.124;8.582;2023-04-21T13:28:31;16.60;;;12.10;;
20828;SDS011;10575;50.124;8.582;2023-04-21T13:30:57;20.23;;;12.15;;
20828;SDS011;10575;50.124;8.582;2023-04-21T13:33:22;21.50;;;13.35;;
20828;SDS011;10575;50.124;8.582;2023-04-21T13:35:48;20.30;;;13.70;;
20828;SDS011;10575;50.124;8.582;2023-04-21T13:38:14;18.48;;;12.98;;
20828;SDS011;10575;50.124;8.582;2023-04-21T13:40:39;19.45;;;14.25;;
20828;SDS011;10575;50.124;8.582;2023-04-21T13:43:05;18.23;;;13.02;;
20828;SDS011;10575;50.124;8.582;2023-04-21T13:45:30;20.35;;;12.23;;
20828;SDS011;10575;50.124;8.582;2023-04-21T13:47:56;17.92;;;11.50;;
20828;SDS011;10575;50.124;8.582;2023-04-21T13:50:22;18.75;;;12.55;;
20828;SDS011;10575;50.124;8.582;2023-04-21T13:52:48;14.82;;;11.30;;
20828;SDS011;10575;50.124;8.582;2023-04-21T13:55:13;17.65;;;11.25;;
20828;SDS011;10575;50.124;8.582;2023-04-21T13:57:39;15.02;;;10.65;;
20828;SDS011;10575;50.124;8.582;2023-04-21T14:00:05;19.67;;;10.07;;
20828;SDS011;10575;50.124;8.582;2023-04-21T14:02:33;14.23;;;10.38;;
20828;SDS011;10575;50.124;8.582;2023-04-21T14:04:58;13.57;;;9.75;;
20828;SDS011;10575;50.124;8.582;2023-04-21T14:07:24;14.52;;;9.98;;
20828;SDS011;10575;50.124;8.582;2023-04-21T14:09:50;15.65;;;11.00;;
20828;SDS011;10575;50.124;8.582;2023-04-21T14:12:15;14.77;;;10.93;;
20828;SDS011;10575;50.124;8.582;2023-04-21T14:14:41;13.55;;;10.18;;
20828;SDS011;10575;50.124;8.582;2023-04-21T14:17:07;16.20;;;10.45;;
20828;SDS011;10575;50.124;8.582;2023-04-21T14:19:33;19.42;;;12.52;;
20828;SDS011;10575;50.124;8.582;2023-04-21T14:21:59;14.00;;;10.95;;
20828;SDS011;10575;50.124;8.582;2023-04-21T14:24:24;16.00;;;11.75;;